createdAt,value
2024-01-26T00:00:29.022Z,8.89
2024-01-26T00:02:57.636Z,8.88
2024-01-26T00:05:25.759Z,8.85
2024-01-26T00:07:54.270Z,8.87
2024-01-26T00:10:24.224Z,8.87
2024-01-26T00:12:52.110Z,8.90
2024-01-26T00:15:20.433Z,8.94
2024-01-26T00:17:48.358Z,8.95
2024-01-26T00:20:16.549Z,8.97
2024-01-26T00:22:44.831Z,9.00
2024-01-26T00:25:12.924Z,9.04
2024-01-26T00:27:42.193Z,9.08
2024-01-26T00:30:10.891Z,9.10
2024-01-26T00:32:39.379Z,9.10
2024-01-26T00:35:08.426Z,9.10
2024-01-26T00:37:36.888Z,9.12
2024-01-26T00:40:05.570Z,9.13
2024-01-26T00:42:33.741Z,9.13
2024-01-26T00:45:02.937Z,9.11
2024-01-26T00:47:29.794Z,9.14
2024-01-26T00:49:57.698Z,9.12
2024-01-26T00:52:26.323Z,9.13
2024-01-26T00:54:54.152Z,9.15
2024-01-26T00:57:22.387Z,9.17
2024-01-26T00:59:50.553Z,9.17
2024-01-26T01:02:19.783Z,9.18
2024-01-26T01:04:47.599Z,9.19
2024-01-26T01:07:15.394Z,9.21
2024-01-26T01:09:43.220Z,9.21
2024-01-26T01:12:11.106Z,9.22
2024-01-26T01:14:40.598Z,9.24
2024-01-26T01:17:09.975Z,9.24
2024-01-26T01:19:39.402Z,9.25
2024-01-26T01:22:07.238Z,9.24
2024-01-26T01:24:35.022Z,9.24
2024-01-26T01:27:02.878Z,9.23
2024-01-26T01:29:30.740Z,9.18
2024-01-26T01:31:58.518Z,9.16
2024-01-26T01:34:26.832Z,9.17
2024-01-26T01:36:56.213Z,9.19
2024-01-26T01:39:24.064Z,9.19
2024-01-26T01:41:51.930Z,9.20
2024-01-26T01:44:19.788Z,9.23
2024-01-26T01:46:48.205Z,9.25
2024-01-26T01:49:16.337Z,9.25
2024-01-26T01:51:48.265Z,9.23
2024-01-26T01:54:18.106Z,9.21
2024-01-26T01:56:46.728Z,9.22
2024-01-26T01:59:14.672Z,9.21
2024-01-26T02:01:42.585Z,9.23
2024-01-26T02:04:10.640Z,9.25
2024-01-26T02:06:38.892Z,9.27
2024-01-26T02:09:07.037Z,9.31
2024-01-26T02:11:36.178Z,9.32
2024-01-26T02:14:04.557Z,9.32
2024-01-26T02:16:32.967Z,9.31
2024-01-26T02:19:00.920Z,9.29
2024-01-26T02:21:29.434Z,9.28
2024-01-26T02:23:58.644Z,9.27
2024-01-26T02:26:26.519Z,9.25
2024-01-26T02:28:54.714Z,9.25
2024-01-26T02:31:22.702Z,9.27
2024-01-26T02:33:50.678Z,9.29
2024-01-26T02:36:18.564Z,9.30
2024-01-26T02:38:46.529Z,9.31
2024-01-26T02:41:15.829Z,9.30
2024-01-26T02:43:43.623Z,9.33
2024-01-26T02:46:12.326Z,9.35
2024-01-26T02:48:41.279Z,9.37
2024-01-26T02:51:09.175Z,9.39
2024-01-26T02:53:40.563Z,9.38
2024-01-26T02:56:08.823Z,9.40
2024-01-26T02:58:38.641Z,9.39
2024-01-26T03:01:06.716Z,9.39
2024-01-26T03:03:34.551Z,9.41
2024-01-26T03:06:02.919Z,9.41
2024-01-26T03:08:32.388Z,9.42
2024-01-26T03:11:00.745Z,9.44
2024-01-26T03:13:28.591Z,9.46
2024-01-26T03:15:57.772Z,9.49
2024-01-26T03:18:26.125Z,9.50
2024-01-26T03:20:54.453Z,9.54
2024-01-26T03:23:22.261Z,9.55
2024-01-26T03:25:50.133Z,9.58
2024-01-26T03:28:17.885Z,9.60
2024-01-26T03:30:48.589Z,9.62
2024-01-26T03:33:19.009Z,9.64
2024-01-26T03:35:48.064Z,9.64
2024-01-26T03:38:15.949Z,9.67
2024-01-26T03:40:43.738Z,9.70
2024-01-26T03:43:11.586Z,9.70
2024-01-26T03:45:39.581Z,9.70
2024-01-26T03:48:08.625Z,9.72
2024-01-26T03:50:38.343Z,9.72
2024-01-26T03:53:06.218Z,9.75
2024-01-26T03:55:33.978Z,9.74
2024-01-26T03:58:02.126Z,9.75
2024-01-26T04:00:30.443Z,9.73
2024-01-26T04:02:58.611Z,9.77
2024-01-26T04:05:26.517Z,9.80
2024-01-26T04:07:55.604Z,9.81
2024-01-26T04:10:23.406Z,9.83
2024-01-26T04:12:51.764Z,9.82
2024-01-26T04:15:19.581Z,9.85
2024-01-26T04:17:47.514Z,9.88
2024-01-26T04:20:15.689Z,9.85
2024-01-26T04:22:44.560Z,9.85
2024-01-26T04:25:13.797Z,9.93
2024-01-26T04:27:41.706Z,9.94
2024-01-26T04:30:11.141Z,9.96
2024-01-26T04:32:39.407Z,9.97
2024-01-26T04:35:08.341Z,9.98
2024-01-26T04:37:36.255Z,9.99
2024-01-26T04:40:04.347Z,10.02
2024-01-26T04:42:33.517Z,10.02
2024-01-26T04:45:01.280Z,10.05
2024-01-26T04:47:29.693Z,10.04
2024-01-26T04:49:58.062Z,10.03
2024-01-26T04:52:27.732Z,10.07
2024-01-26T04:54:55.584Z,10.08
2024-01-26T04:57:23.704Z,10.08
2024-01-26T04:59:53.621Z,10.08
2024-01-26T05:02:21.505Z,10.09
2024-01-26T05:04:49.267Z,10.10
2024-01-26T05:07:17.397Z,10.10
2024-01-26T05:09:48.554Z,10.11
2024-01-26T05:12:17.418Z,10.14
2024-01-26T05:14:46.524Z,10.17
2024-01-26T05:17:15.760Z,10.18
2024-01-26T05:19:43.690Z,10.16
2024-01-26T05:22:11.542Z,10.20
2024-01-26T05:24:39.817Z,10.19
2024-01-26T05:27:08.674Z,10.18
2024-01-26T05:29:37.145Z,10.20
2024-01-26T05:32:05.676Z,10.20
2024-01-26T05:34:35.150Z,10.21
2024-01-26T05:37:03.071Z,10.20
2024-01-26T05:39:30.901Z,10.21
2024-01-26T05:41:58.718Z,10.18
2024-01-26T05:44:26.744Z,10.16
2024-01-26T05:46:54.961Z,10.17
2024-01-26T05:49:24.968Z,10.21
2024-01-26T05:51:54.366Z,10.18
2024-01-26T05:54:22.142Z,10.17
2024-01-26T05:56:49.993Z,10.16
2024-01-26T05:59:17.868Z,10.15
2024-01-26T06:01:45.924Z,10.17
2024-01-26T06:04:13.895Z,10.15
2024-01-26T06:06:41.862Z,10.18
2024-01-26T06:09:12.544Z,10.17
2024-01-26T06:11:43.573Z,10.17
2024-01-26T06:14:11.557Z,10.15
2024-01-26T06:16:39.508Z,10.16
2024-01-26T06:19:07.571Z,10.18
2024-01-26T06:21:35.604Z,10.20
2024-01-26T06:24:03.910Z,10.21
2024-01-26T06:26:33.270Z,10.23
2024-01-26T06:29:01.375Z,10.26
2024-01-26T06:31:29.388Z,10.27
2024-01-26T06:33:57.885Z,10.29
2024-01-26T06:36:25.851Z,10.30
2024-01-26T06:38:53.715Z,10.33
2024-01-26T06:41:22.042Z,10.33
2024-01-26T06:43:52.972Z,10.34
2024-01-26T06:46:24.143Z,10.35
2024-01-26T06:48:52.766Z,10.35
2024-01-26T06:51:20.977Z,10.38
2024-01-26T06:53:49.513Z,10.39
2024-01-26T06:56:17.446Z,10.40
2024-01-26T06:58:46.793Z,10.41
2024-01-26T07:01:16.253Z,10.42
2024-01-26T07:03:44.247Z,10.45
2024-01-26T07:06:12.797Z,10.47
2024-01-26T07:08:42.739Z,10.49
2024-01-26T07:11:12.645Z,10.50
2024-01-26T07:13:40.459Z,10.54
2024-01-26T07:16:09.734Z,10.53
2024-01-26T07:18:39.178Z,10.56
2024-01-26T07:21:09.388Z,10.57
2024-01-26T07:23:41.172Z,10.61
2024-01-26T07:26:09.184Z,10.63
2024-01-26T07:28:37.631Z,10.64
2024-01-26T07:31:05.738Z,10.67
2024-01-26T07:33:33.918Z,10.67
2024-01-26T07:36:03.705Z,10.65
2024-01-26T07:38:31.663Z,10.68
2024-01-26T07:40:59.727Z,10.67
2024-01-26T07:43:28.001Z,10.67
2024-01-26T07:45:55.793Z,10.67
2024-01-26T07:48:26.105Z,10.69
2024-01-26T07:50:54.130Z,10.69
2024-01-26T07:53:23.490Z,10.71
2024-01-26T07:55:51.835Z,10.73
2024-01-26T07:58:20.365Z,10.71
2024-01-26T08:00:49.768Z,10.71
2024-01-26T08:03:17.777Z,10.72
2024-01-26T08:05:46.353Z,10.73
2024-01-26T08:08:14.465Z,10.76
2024-01-26T08:10:44.209Z,10.79
2024-01-26T08:13:13.289Z,10.79
2024-01-26T08:15:41.724Z,10.76
2024-01-26T08:18:10.003Z,10.73
2024-01-26T08:20:38.509Z,10.74
2024-01-26T08:23:06.884Z,10.74
2024-01-26T08:25:35.184Z,10.75
2024-01-26T08:28:05.614Z,10.76
2024-01-26T08:30:33.477Z,10.76
2024-01-26T08:33:01.385Z,10.80
2024-01-26T08:35:29.644Z,10.80
2024-01-26T08:37:57.761Z,10.84
2024-01-26T08:40:26.981Z,10.85
2024-01-26T08:42:54.791Z,10.86
2024-01-26T08:45:24.062Z,10.86
2024-01-26T08:47:52.657Z,10.88
2024-01-26T08:50:20.755Z,10.87
2024-01-26T08:52:48.908Z,10.88
2024-01-26T08:55:17.247Z,10.90
2024-01-26T08:57:45.381Z,10.91
2024-01-26T09:00:16.142Z,10.90
2024-01-26T09:02:45.370Z,10.94
2024-01-26T09:05:13.647Z,10.94
2024-01-26T09:07:41.423Z,10.94
2024-01-26T09:10:09.894Z,10.91
2024-01-26T09:12:37.698Z,10.89
2024-01-26T09:15:06.112Z,10.86
2024-01-26T09:17:34.153Z,10.81
2024-01-26T09:20:04.124Z,10.86
2024-01-26T09:22:33.908Z,10.89
2024-01-26T09:25:01.801Z,10.83
2024-01-26T09:27:30.173Z,10.87
2024-01-26T09:29:58.573Z,10.88
2024-01-26T09:32:26.440Z,10.94
2024-01-26T09:34:54.489Z,10.93
2024-01-26T09:37:24.183Z,10.97
2024-01-26T09:39:52.039Z,10.98
2024-01-26T09:42:20.218Z,10.99
2024-01-26T09:44:48.812Z,10.97
2024-01-26T09:47:16.949Z,10.95
2024-01-26T09:49:49.894Z,10.94
2024-01-26T09:52:19.413Z,10.94
2024-01-26T09:54:49.671Z,10.95
2024-01-26T09:57:19.220Z,10.95
2024-01-26T09:59:51.309Z,10.94
2024-01-26T10:02:19.449Z,10.94
2024-01-26T10:04:47.264Z,10.96
2024-01-26T10:07:15.269Z,10.97
2024-01-26T10:09:43.551Z,11.04
2024-01-26T10:12:13.125Z,11.10
2024-01-26T10:14:41.131Z,11.10
2024-01-26T10:17:09.159Z,11.12
2024-01-26T10:19:37.997Z,11.06
2024-01-26T10:22:07.426Z,11.13
2024-01-26T10:24:35.395Z,11.10
2024-01-26T10:27:03.378Z,11.12
2024-01-26T10:29:35.761Z,11.23
2024-01-26T10:32:05.970Z,11.23
2024-01-26T10:34:36.633Z,11.30
2024-01-26T10:37:10.285Z,11.29
2024-01-26T10:39:40.420Z,11.38
2024-01-26T10:42:10.948Z,11.48
2024-01-26T10:44:41.163Z,11.46
2024-01-26T10:47:10.436Z,11.47
2024-01-26T10:49:38.920Z,11.46
2024-01-26T10:52:08.520Z,11.49
2024-01-26T10:54:37.637Z,11.59
2024-01-26T10:57:05.780Z,11.66
2024-01-26T10:59:35.182Z,11.71
2024-01-26T11:02:04.816Z,11.71
2024-01-26T11:04:33.127Z,11.67
2024-01-26T11:07:02.209Z,11.62
2024-01-26T11:09:34.198Z,11.75
2024-01-26T11:12:03.582Z,11.80
2024-01-26T11:14:33.977Z,11.76
2024-01-26T11:17:11.716Z,11.79
2024-01-26T11:19:40.494Z,11.86
2024-01-26T11:22:10.067Z,11.84
2024-01-26T11:24:38.021Z,11.85
2024-01-26T11:27:06.927Z,11.83
2024-01-26T11:29:35.989Z,11.80
2024-01-26T11:32:15.478Z,11.88
2024-01-26T11:34:45.158Z,11.81
2024-01-26T11:37:14.572Z,11.77
2024-01-26T11:39:43.630Z,11.76
2024-01-26T11:42:13.420Z,11.52
2024-01-26T11:44:42.204Z,11.55
2024-01-26T11:47:11.054Z,11.45
2024-01-26T11:49:40.609Z,11.18
2024-01-26T11:52:10.352Z,11.21
2024-01-26T11:54:39.101Z,10.84
2024-01-26T11:57:08.165Z,10.73
2024-01-26T11:59:36.576Z,10.60
2024-01-26T12:02:04.895Z,10.62
2024-01-26T12:04:33.362Z,10.50
2024-01-26T12:07:01.236Z,10.63
2024-01-26T12:09:31.422Z,10.59
2024-01-26T12:11:59.628Z,10.64
2024-01-26T12:14:28.199Z,10.52
2024-01-26T12:16:56.590Z,10.63
2024-01-26T12:19:24.393Z,10.75
2024-01-26T12:21:52.980Z,10.72
2024-01-26T12:24:21.168Z,10.67
2024-01-26T12:26:51.851Z,10.77
2024-01-26T12:29:22.038Z,10.77
2024-01-26T12:31:51.316Z,10.75
2024-01-26T12:34:19.738Z,10.64
2024-01-26T12:36:47.670Z,10.64
2024-01-26T12:39:15.669Z,10.41
2024-01-26T12:41:43.570Z,10.41
2024-01-26T12:44:12.837Z,10.39
2024-01-26T12:46:42.399Z,10.23
2024-01-26T12:49:12.083Z,10.43
2024-01-26T12:51:40.144Z,10.94
2024-01-26T12:54:08.346Z,10.81
2024-01-26T12:56:36.248Z,10.68
2024-01-26T12:59:04.056Z,10.51
2024-01-26T13:01:33.674Z,10.23
2024-01-26T13:04:01.683Z,10.35
2024-01-26T13:06:29.974Z,10.16
2024-01-26T13:08:58.052Z,10.10
2024-01-26T13:11:26.222Z,9.77
2024-01-26T13:13:54.023Z,9.57
2024-01-26T13:16:22.415Z,9.42
2024-01-26T13:18:51.845Z,9.43
2024-01-26T13:21:21.193Z,9.34
2024-01-26T13:23:49.606Z,9.24
2024-01-26T13:26:18.029Z,9.24
2024-01-26T13:28:46.501Z,9.19
2024-01-26T13:31:14.427Z,9.20
2024-01-26T13:33:44.992Z,9.39
2024-01-26T13:36:14.737Z,9.26
2024-01-26T13:38:42.886Z,9.24
2024-01-26T13:41:10.724Z,9.31
2024-01-26T13:43:38.569Z,9.47
2024-01-26T13:46:06.415Z,9.52
2024-01-26T13:48:35.695Z,9.55
2024-01-26T13:51:03.735Z,9.54
2024-01-26T13:53:33.448Z,9.56
2024-01-26T13:56:01.486Z,9.62
2024-01-26T13:58:30.284Z,9.51
2024-01-26T14:00:58.227Z,9.52
2024-01-26T14:03:26.983Z,9.53
2024-01-26T14:05:55.317Z,9.56
2024-01-26T14:08:23.306Z,9.50
2024-01-26T14:10:52.519Z,9.33
2024-01-26T14:13:20.300Z,9.25
2024-01-26T14:15:48.371Z,8.89
2024-01-26T14:18:16.303Z,8.91
2024-01-26T14:20:44.211Z,8.87
2024-01-26T14:23:13.364Z,8.77
2024-01-26T14:25:41.549Z,8.83
2024-01-26T14:28:10.845Z,8.66
2024-01-26T14:30:38.663Z,8.63
2024-01-26T14:33:08.574Z,8.66
2024-01-26T14:35:36.516Z,8.61
2024-01-26T14:38:04.560Z,8.54
2024-01-26T14:40:32.697Z,8.54
2024-01-26T14:43:01.316Z,8.45
2024-01-26T14:45:31.392Z,8.53
2024-01-26T14:47:59.416Z,8.47
2024-01-26T14:50:27.312Z,8.43
2024-01-26T14:52:56.028Z,8.53
2024-01-26T14:55:23.861Z,8.59
2024-01-26T14:57:53.563Z,8.45
2024-01-26T15:00:22.671Z,8.45
2024-01-26T15:02:52.347Z,8.52
2024-01-26T15:05:23.654Z,8.55
2024-01-26T15:07:53.077Z,8.49
2024-01-26T15:10:23.300Z,8.48
2024-01-26T15:12:51.547Z,8.57
2024-01-26T15:15:20.328Z,8.50
2024-01-26T15:17:50.187Z,8.47
2024-01-26T15:20:20.468Z,8.40
2024-01-26T15:22:51.576Z,8.31
2024-01-26T15:25:19.645Z,8.27
2024-01-26T15:27:47.633Z,8.30
2024-01-26T15:30:18.052Z,8.25
2024-01-26T15:32:46.578Z,8.19
2024-01-26T15:35:15.016Z,8.23
2024-01-26T15:37:44.415Z,8.22
2024-01-26T15:40:15.645Z,8.10
2024-01-26T15:42:43.506Z,8.10
2024-01-26T15:45:13.115Z,8.09
2024-01-26T15:47:41.154Z,7.96
2024-01-26T15:50:09.691Z,7.92
2024-01-26T15:52:45.310Z,7.95
2024-01-26T15:55:16.326Z,7.85
2024-01-26T15:57:44.612Z,7.85
2024-01-26T16:00:15.109Z,7.84
2024-01-26T16:02:43.074Z,7.85
2024-01-26T16:05:12.392Z,7.88
2024-01-26T16:07:40.333Z,7.83
2024-01-26T16:10:10.449Z,7.85
2024-01-26T16:12:40.684Z,7.85
2024-01-26T16:15:10.551Z,7.80
2024-01-26T16:17:38.750Z,7.77
2024-01-26T16:20:07.815Z,7.77
2024-01-26T16:22:35.649Z,7.77
2024-01-26T16:25:03.510Z,7.74
2024-01-26T16:27:31.380Z,7.67
2024-01-26T16:30:00.707Z,7.66
2024-01-26T16:32:28.641Z,7.66
2024-01-26T16:34:57.450Z,7.61
2024-01-26T16:37:25.360Z,7.57
2024-01-26T16:39:53.240Z,7.58
2024-01-26T16:42:21.556Z,7.50
2024-01-26T16:44:49.412Z,7.51
2024-01-26T16:47:18.885Z,7.46
2024-01-26T16:49:48.662Z,7.46
2024-01-26T16:52:16.564Z,7.40
2024-01-26T16:54:44.708Z,7.44
2024-01-26T16:57:12.532Z,7.45
2024-01-26T16:59:40.461Z,7.45
2024-01-26T17:02:08.752Z,7.46
2024-01-26T17:04:37.954Z,7.41
2024-01-26T17:07:06.340Z,7.40
2024-01-26T17:09:34.214Z,7.43
2024-01-26T17:12:02.121Z,7.35
2024-01-26T17:14:30.644Z,7.39
2024-01-26T17:16:59.035Z,7.39
2024-01-26T17:19:26.854Z,7.36
2024-01-26T17:21:56.252Z,7.35
2024-01-26T17:24:24.440Z,7.38
2024-01-26T17:26:52.306Z,7.37
2024-01-26T17:29:20.614Z,7.36
2024-01-26T17:31:49.939Z,7.38
2024-01-26T17:34:17.796Z,7.35
2024-01-26T17:36:46.396Z,7.36
2024-01-26T17:39:15.772Z,7.32
2024-01-26T17:41:43.828Z,7.31
2024-01-26T17:44:12.272Z,7.27
2024-01-26T17:46:47.814Z,7.14
2024-01-26T17:49:17.994Z,7.19
2024-01-26T17:51:46.363Z,7.15
2024-01-26T17:54:15.624Z,7.18
2024-01-26T17:56:43.585Z,7.12
2024-01-26T17:59:12.348Z,7.10
2024-01-26T18:01:40.796Z,7.12
2024-01-26T18:04:09.283Z,7.10
2024-01-26T18:06:37.671Z,7.09
2024-01-26T18:09:05.839Z,7.12
2024-01-26T18:11:35.426Z,7.08
2024-01-26T18:14:03.330Z,7.11
2024-01-26T18:16:31.100Z,7.14
2024-01-26T18:18:59.009Z,7.10
2024-01-26T18:21:27.827Z,7.07
2024-01-26T18:23:55.752Z,7.08
2024-01-26T18:26:23.564Z,7.04
2024-01-26T18:28:52.770Z,7.02
2024-01-26T18:31:31.407Z,7.02
2024-01-26T18:33:59.617Z,6.99
2024-01-26T18:36:29.068Z,6.95
2024-01-26T18:38:57.229Z,6.89
2024-01-26T18:41:25.613Z,6.86
2024-01-26T18:43:57.557Z,6.86
2024-01-26T18:46:27.076Z,6.92
2024-01-26T18:48:56.185Z,6.92
2024-01-26T18:51:24.686Z,6.94
2024-01-26T18:53:53.533Z,6.93
2024-01-26T18:56:21.773Z,6.89
2024-01-26T18:58:49.967Z,6.81
2024-01-26T19:01:20.414Z,6.86
2024-01-26T19:03:48.997Z,6.87
2024-01-26T19:06:17.524Z,6.95
2024-01-26T19:08:45.522Z,6.93
2024-01-26T19:11:14.542Z,6.90
2024-01-26T19:13:43.964Z,6.90
2024-01-26T19:16:12.747Z,6.91
2024-01-26T19:18:42.322Z,6.87
2024-01-26T19:21:10.624Z,6.92
2024-01-26T19:23:38.685Z,6.95
2024-01-26T19:26:07.572Z,6.95
2024-01-26T19:28:35.512Z,6.94
2024-01-26T19:31:03.386Z,6.99
2024-01-26T19:33:31.313Z,6.99
2024-01-26T19:36:00.641Z,6.99
2024-01-26T19:38:28.458Z,7.03
2024-01-26T19:40:56.267Z,7.05
2024-01-26T19:43:24.216Z,7.09
2024-01-26T19:45:52.030Z,7.10
2024-01-26T19:48:19.983Z,7.09
2024-01-26T19:50:47.955Z,7.12
2024-01-26T19:53:20.500Z,7.16
2024-01-26T19:55:50.075Z,7.14
2024-01-26T19:58:18.018Z,7.11
2024-01-26T20:00:45.849Z,7.08
2024-01-26T20:03:13.860Z,7.01
2024-01-26T20:05:42.158Z,6.92
2024-01-26T20:08:10.214Z,6.88
2024-01-26T20:10:40.430Z,6.78
2024-01-26T20:13:08.437Z,6.69
2024-01-26T20:15:36.722Z,6.61
2024-01-26T20:18:05.249Z,6.53
2024-01-26T20:20:33.497Z,6.48
2024-01-26T20:23:01.954Z,6.44
2024-01-26T20:25:30.009Z,6.40
2024-01-26T20:27:59.652Z,6.28
2024-01-26T20:30:30.600Z,6.30
2024-01-26T20:32:59.549Z,6.20
2024-01-26T20:35:27.755Z,6.19
2024-01-26T20:37:55.765Z,6.14
2024-01-26T20:40:25.481Z,6.15
2024-01-26T20:43:01.553Z,6.13
2024-01-26T20:45:31.498Z,6.13
2024-01-26T20:48:00.328Z,6.12
2024-01-26T20:50:29.697Z,6.13
2024-01-26T20:52:57.913Z,6.13
2024-01-26T20:55:25.744Z,6.10
2024-01-26T20:57:53.988Z,6.15
2024-01-26T21:00:23.346Z,6.16
2024-01-26T21:02:53.108Z,6.20
2024-01-26T21:05:21.338Z,6.22
2024-01-26T21:07:57.434Z,6.25
2024-01-26T21:10:26.571Z,6.31
2024-01-26T21:12:55.416Z,6.32
2024-01-26T21:15:23.432Z,6.34
2024-01-26T21:17:53.478Z,6.36
2024-01-26T21:20:22.352Z,6.37
2024-01-26T21:22:52.804Z,6.44
2024-01-26T21:25:21.935Z,6.45
2024-01-26T21:27:50.756Z,6.47
2024-01-26T21:30:19.005Z,6.48
2024-01-26T21:32:47.064Z,6.54
2024-01-26T21:35:16.358Z,6.59
2024-01-26T21:37:45.313Z,6.60
2024-01-26T21:40:15.064Z,6.65
2024-01-26T21:42:43.802Z,6.65
2024-01-26T21:45:12.827Z,6.60
2024-01-26T21:47:42.444Z,6.58
2024-01-26T21:50:12.668Z,6.54
2024-01-26T21:52:43.083Z,6.58
2024-01-26T21:55:12.047Z,6.57
2024-01-26T21:57:41.340Z,6.57
2024-01-26T22:00:10.479Z,6.55
2024-01-26T22:02:38.534Z,6.52
2024-01-26T22:05:09.495Z,6.50
2024-01-26T22:07:37.649Z,6.45
2024-01-26T22:10:08.863Z,6.39
2024-01-26T22:12:36.908Z,6.32
2024-01-26T22:15:05.778Z,6.24
2024-01-26T22:17:34.677Z,6.14
2024-01-26T22:20:02.856Z,6.02
2024-01-26T22:22:32.260Z,5.85
2024-01-26T22:25:00.850Z,5.77
2024-01-26T22:27:30.677Z,5.65
2024-01-26T22:29:58.798Z,5.55
2024-01-26T22:32:26.627Z,5.44
2024-01-26T22:34:54.480Z,5.35
2024-01-26T22:37:23.227Z,5.25
2024-01-26T22:39:52.121Z,5.17
2024-01-26T22:42:19.965Z,5.08
2024-01-26T22:44:49.477Z,4.98
2024-01-26T22:47:17.551Z,4.90
2024-01-26T22:49:45.460Z,4.88
2024-01-26T22:52:13.762Z,4.80
2024-01-26T22:54:41.627Z,4.74
2024-01-26T22:57:10.501Z,4.68
2024-01-26T22:59:38.360Z,4.63
2024-01-26T23:02:07.866Z,4.59
2024-01-26T23:04:35.859Z,4.52
2024-01-26T23:07:04.199Z,4.49
2024-01-26T23:09:32.183Z,4.44
2024-01-26T23:11:59.995Z,4.39
2024-01-26T23:14:28.205Z,4.35
2024-01-26T23:16:56.037Z,4.27
2024-01-26T23:19:31.080Z,4.24
2024-01-26T23:22:00.495Z,4.23
2024-01-26T23:24:28.683Z,4.19
2024-01-26T23:26:57.228Z,4.12
2024-01-26T23:29:25.170Z,4.09
2024-01-26T23:31:53.383Z,4.07
2024-01-26T23:34:21.531Z,4.03
2024-01-26T23:36:51.368Z,4.01
2024-01-26T23:39:19.240Z,3.95
2024-01-26T23:41:48.574Z,3.93
2024-01-26T23:44:16.586Z,3.91
2024-01-26T23:46:46.022Z,3.89
2024-01-26T23:49:14.871Z,3.86
2024-01-26T23:51:43.273Z,3.83
2024-01-26T23:54:14.355Z,3.81
2024-01-26T23:56:42.248Z,3.80
2024-01-26T23:59:10.058Z,3.77
